Terminal Aerodrome Forecast
Issued by NWS Columbia, SC

Home | Current Version | Previous Version | Text Only | Print | Product List | Glossary On
Versions: 1 2 3 4 5 6 7 8 9 10 11 12 13 14 15 16 17 18 19 20 21 22 23 24 25 26
272
FTUS42 KCAE 201428 AAC
TAFCAE
TAF AMD
KCAE 201428Z 2014/2112 09003KT P6SM BKN015
      TEMPO 2015/2016 SCT015
     FM201700 24010KT P6SM SCT025 BKN060
     FM210000 21004KT P6SM BKN100
     FM210600 VRB03KT 4SM BR OVC050=

USA.gov is the U.S. government's official web portal to all federal, state and local government web resources and services.